Forside
METAR-TAF:

METAR-TAF

Lufthavne :

Adrian, Michigan, USA

Breddekreds: 41-52-04N, længdekreds: 084-04-46W, højde: 244 m

Aktuelle vejr

Denne rapport blev lavet for 40 minutter siden, kl. 12:53 UTC
Vind 6 kt fra nordøst
Temperatur 4°C
Fugtighed 81%
Tryk 1017 hPa
Sigt: 16.1 km
Overskyet i en højde af 1600 ft

METAR: KADG 311253Z AUTO 04006KT 10SM OVC016 04/01 A3003 RMK AO2 SLP178 T00390011

Tid: 09:33 (13:33 UTC)


TAF: fraværende

Vejrobservationer og prognoser fra mere end 4000 lufthavne (METAR og TAF).

De gule og røde prikker repræsenterer de meteorologiske stationer.

Flyt musen over at se navnet på stationen.

Så klik over at se vejr observationer og prognoser.

At skifte det kort: Klik på de grønne knapper med et sort kors for at zoome ind; på den grønne knap med en bindestreg for at zoome ud; eller på de grønne pile for tilstødende kort.


METAR-TAF: